Time;durP1;ratioP1;P1;durP2;ratioP2;P2;SDS_P1;SDS_P2;PMS_P1;PMS_P2;Temp;Humidity;BMP_temperature;BMP_pressure;BME280_temperature;BME280_humidity;BME280_pressure;Samples;Min_cycle;Max_cycle;Signal;HPM_P1;HPM_P2
2021/08/23 00:01:35;;;;;;;7.53;5.38;;;26.70;97.00;;;;;;5075197;28;20040;-59
2021/08/23 00:04:04;;;;;;;6.78;5.03;;;26.70;97.10;;;;;;5075364;28;20402;-59
2021/08/23 00:06:31;;;;;;;10.23;5.40;;;26.70;97.10;;;;;;5075737;28;20059;-59
2021/08/23 00:08:59;;;;;;;8.23;5.50;;;26.70;97.20;;;;;;5074572;28;20044;-59
2021/08/23 00:11:28;;;;;;;7.63;6.25;;;26.70;97.20;;;;;;5058061;28;20066;-59
2021/08/23 00:13:56;;;;;;;7.82;5.97;;;26.70;97.20;;;;;;5075139;28;20040;-59
2021/08/23 00:16:24;;;;;;;9.23;5.85;;;26.60;97.30;;;;;;5075170;28;20036;-59
2021/08/23 00:18:51;;;;;;;9.25;5.68;;;26.60;97.40;;;;;;5076303;28;20089;-59
2021/08/23 00:21:24;;;;;;;9.15;6.50;;;26.60;97.50;;;;;;5097304;28;20131;-59
2021/08/23 00:23:55;;;;;;;7.20;4.90;;;26.60;97.60;;;;;;5078805;28;20055;-59
2021/08/23 00:26:22;;;;;;;7.15;5.40;;;26.50;97.60;;;;;;5078472;28;20477;-59
2021/08/23 00:29:01;;;;;;;6.88;5.07;;;26.60;97.80;;;;;;5096818;28;20143;-59
2021/08/23 00:31:29;;;;;;;8.35;4.88;;;26.50;97.90;;;;;;5076495;28;20053;-59
2021/08/23 00:33:57;;;;;;;7.22;5.30;;;26.50;97.90;;;;;;5075639;28;20520;-59
2021/08/23 00:36:25;;;;;;;6.32;4.43;;;26.50;98.20;;;;;;5058993;28;20048;-59
2021/08/23 00:38:52;;;;;;;5.82;3.85;;;26.50;98.30;;;;;;5058834;28;20043;-59
2021/08/23 00:41:20;;;;;;;6.15;4.60;;;26.50;98.50;;;;;;5057455;28;20478;-59
2021/08/23 00:43:48;;;;;;;7.45;4.47;;;26.50;98.60;;;;;;5074781;28;20516;-59
2021/08/23 00:46:16;;;;;;;4.95;4.05;;;26.50;98.70;;;;;;5075143;28;20055;-59
2021/08/23 00:48:44;;;;;;;8.95;5.00;;;26.50;98.70;;;;;;5075370;28;20051;-59
2021/08/23 00:51:11;;;;;;;7.10;4.28;;;26.40;98.60;;;;;;5075130;28;20050;-59
2021/08/23 00:53:39;;;;;;;7.35;4.22;;;26.40;98.60;;;;;;5075085;28;20049;-59
2021/08/23 00:56:07;;;;;;;8.13;3.90;;;26.40;98.60;;;;;;5075132;28;20122;-59
2021/08/23 00:58:34;;;;;;;4.38;3.10;;;26.40;98.70;;;;;;5057958;28;20049;-59
2021/08/23 01:01:15;;;;;;;6.13;3.72;;;26.40;98.80;;;;;;5058137;28;20047;-58
2021/08/23 01:04:35;;;;;;;4.78;3.03;;;26.40;99.00;;;;;;5076273;28;20065;-59
2021/08/23 01:07:07;;;;;;;5.50;3.38;;;26.50;99.10;;;;;;5014256;28;20050;-59
2021/08/23 01:09:38;;;;;;;6.18;3.60;;;26.50;99.10;;;;;;5014405;28;20495;-59
2021/08/23 01:12:09;;;;;;;5.18;3.75;;;26.50;99.20;;;;;;5029091;28;20044;-59
2021/08/23 01:14:37;;;;;;;5.15;3.33;;;26.40;99.20;;;;;;5057410;28;20056;-59
2021/08/23 01:17:06;;;;;;;4.95;3.60;;;26.40;99.30;;;;;;5041175;28;20502;-59
2021/08/23 01:19:38;;;;;;;10.13;4.55;;;26.40;99.30;;;;;;5074808;28;20513;-59
2021/08/23 01:22:06;;;;;;;4.18;2.80;;;26.40;99.30;;;;;;5074721;28;20414;-60
2021/08/23 01:24:37;;;;;;;6.00;3.67;;;26.40;99.30;;;;;;5058137;28;20429;-59
2021/08/23 01:27:09;;;;;;;5.03;3.35;;;26.40;99.30;;;;;;5040545;28;20048;-60
2021/08/23 01:30:05;;;;;;;7.38;3.80;;;26.40;99.30;;;;;;5052339;28;20055;-59
2021/08/23 01:32:34;;;;;;;6.65;3.17;;;26.40;99.40;;;;;;5037494;28;20443;-59
2021/08/23 01:35:04;;;;;;;4.22;3.10;;;26.40;99.30;;;;;;5054298;28;20059;-59
2021/08/23 01:37:33;;;;;;;4.80;3.50;;;26.40;99.30;;;;;;5037838;28;20049;-58
2021/08/23 01:40:01;;;;;;;4.85;3.03;;;26.40;99.30;;;;;;5054338;28;20128;-59
2021/08/23 01:42:31;;;;;;;4.45;3.30;;;26.40;99.30;;;;;;5037076;28;20094;-59
2021/08/23 01:44:59;;;;;;;5.88;3.30;;;26.40;99.30;;;;;;5053355;28;20045;-59
2021/08/23 01:47:27;;;;;;;5.13;2.83;;;26.40;99.40;;;;;;5053684;28;20080;-59
2021/08/23 01:49:55;;;;;;;5.25;3.25;;;26.40;99.40;;;;;;5055079;28;20060;-59
2021/08/23 01:52:22;;;;;;;5.28;3.13;;;26.40;99.40;;;;;;5054026;28;20045;-59
2021/08/23 01:54:50;;;;;;;5.65;4.53;;;26.40;99.50;;;;;;5053902;28;20387;-59
2021/08/23 01:57:19;;;;;;;6.13;2.95;;;26.40;99.50;;;;;;5053779;28;20112;-59
2021/08/23 01:59:50;;;;;;;5.07;3.47;;;26.40;99.60;;;;;;5036301;28;20049;-59
2021/08/23 02:02:18;;;;;;;6.82;3.78;;;26.40;99.50;;;;;;5053518;28;20052;-59
2021/08/23 02:04:46;;;;;;;5.13;3.53;;;26.40;99.50;;;;;;5037022;28;20045;-59
2021/08/23 02:07:13;;;;;;;8.50;3.65;;;26.40;99.50;;;;;;5053630;28;20041;-59
2021/08/23 02:09:41;;;;;;;4.40;3.05;;;26.30;99.50;;;;;;5053794;28;20053;-59
2021/08/23 02:12:09;;;;;;;6.13;4.25;;;26.30;99.50;;;;;;5037156;28;20398;-59
2021/08/23 02:14:37;;;;;;;4.32;3.33;;;26.30;99.60;;;;;;5052736;28;20053;-59
2021/08/23 02:17:05;;;;;;;5.03;4.07;;;26.30;99.60;;;;;;5052750;28;20083;-60
2021/08/23 02:19:33;;;;;;;6.95;4.03;;;26.30;99.60;;;;;;5054410;28;20119;-59
2021/08/23 02:22:02;;;;;;;3.90;2.95;;;26.30;99.60;;;;;;5053180;28;20049;-59
2021/08/23 02:24:33;;;;;;;4.18;3.20;;;26.30;99.70;;;;;;5053399;28;20041;-59
2021/08/23 02:27:00;;;;;;;6.13;3.45;;;26.30;99.70;;;;;;5036916;28;20063;-59
2021/08/23 02:29:28;;;;;;;9.35;4.40;;;26.30;99.70;;;;;;5059045;28;20134;-59
2021/08/23 02:31:56;;;;;;;6.10;3.72;;;26.30;99.60;;;;;;5059499;28;20043;-59
2021/08/23 02:34:24;;;;;;;3.72;3.05;;;26.30;99.50;;;;;;5059652;28;20043;-59
2021/08/23 02:36:52;;;;;;;6.18;3.88;;;26.30;99.50;;;;;;5076242;28;20040;-59
2021/08/23 02:39:19;;;;;;;4.53;3.50;;;26.30;99.50;;;;;;5076784;28;20089;-59
2021/08/23 02:41:53;;;;;;;4.70;3.50;;;26.20;99.50;;;;;;5076552;28;20051;-59
2021/08/23 02:44:21;;;;;;;6.38;3.83;;;26.20;99.70;;;;;;5059639;28;20532;-59
2021/08/23 02:46:50;;;;;;;6.82;3.30;;;26.20;99.60;;;;;;5058746;28;20408;-59
2021/08/23 02:49:18;;;;;;;4.85;3.60;;;26.10;99.40;;;;;;5059179;28;20055;-59
2021/08/23 02:51:45;;;;;;;6.18;4.20;;;26.10;99.30;;;;;;5076431;28;20047;-59
2021/08/23 02:54:13;;;;;;;5.22;3.97;;;26.00;99.00;;;;;;5059813;28;20044;-59
2021/08/23 02:56:41;;;;;;;8.38;4.65;;;26.00;99.00;;;;;;5076351;28;20044;-59
2021/08/23 02:59:09;;;;;;;18.00;4.85;;;25.90;98.90;;;;;;5076422;28;20452;-59
2021/08/23 03:01:36;;;;;;;8.23;5.35;;;25.90;98.90;;;;;;5074954;28;20066;-59
2021/08/23 03:04:04;;;;;;;7.97;5.20;;;25.70;98.80;;;;;;5075461;28;20044;-59
2021/08/23 03:06:32;;;;;;;8.18;5.18;;;25.50;98.80;;;;;;5075707;28;20041;-59
2021/08/23 03:09:00;;;;;;;6.55;4.97;;;25.20;99.20;;;;;;5094041;28;20127;-59
2021/08/23 03:11:28;;;;;;;7.32;5.13;;;25.00;99.30;;;;;;5076093;28;20187;-59
2021/08/23 03:13:55;;;;;;;7.30;4.78;;;24.80;99.50;;;;;;5075630;28;20172;-59
2021/08/23 03:16:23;;;;;;;7.40;4.78;;;24.80;99.90;;;;;;5075339;28;20098;-59
2021/08/23 03:18:51;;;;;;;10.00;4.63;;;24.90;99.80;;;;;;5075405;28;20040;-59
2021/08/23 03:21:18;;;;;;;7.05;4.75;;;24.90;99.70;;;;;;5075456;28;20051;-59
2021/08/23 03:23:46;;;;;;;7.22;5.55;;;24.90;99.60;;;;;;5075781;28;20131;-59
2021/08/23 03:26:13;;;;;;;8.30;5.63;;;25.00;99.60;;;;;;5075496;28;20036;-59
2021/08/23 03:28:41;;;;;;;7.53;5.90;;;25.00;99.60;;;;;;5058795;28;20094;-59
2021/08/23 03:31:09;;;;;;;7.53;4.80;;;25.10;99.50;;;;;;5075994;28;20398;-59
2021/08/23 03:33:39;;;;;;;7.50;5.22;;;25.10;99.40;;;;;;5074841;28;20106;-59
2021/08/23 03:36:07;;;;;;;8.25;5.13;;;25.10;99.30;;;;;;5075795;28;20097;-60
2021/08/23 03:38:34;;;;;;;8.65;5.63;;;25.20;99.30;;;;;;5075662;28;20397;-59
2021/08/23 03:41:02;;;;;;;7.93;5.47;;;25.20;99.20;;;;;;5075794;28;20040;-59
2021/08/23 03:43:30;;;;;;;7.88;5.05;;;25.30;99.10;;;;;;5075381;28;20144;-59
2021/08/23 03:45:57;;;;;;;6.10;4.50;;;25.30;99.00;;;;;;5075277;28;20044;-59
2021/08/23 03:48:25;;;;;;;7.20;4.70;;;25.30;99.00;;;;;;5074470;28;20611;-59
2021/08/23 03:50:57;;;;;;;5.00;3.85;;;25.30;99.00;;;;;;5075868;28;20393;-59
2021/08/23 03:53:25;;;;;;;6.50;4.80;;;25.30;99.00;;;;;;5074913;28;20048;-59
2021/08/23 03:55:53;;;;;;;8.07;4.50;;;25.30;99.00;;;;;;5075425;28;20398;-59
2021/08/23 03:58:20;;;;;;;9.10;4.78;;;25.30;98.90;;;;;;5075222;28;20040;-59
2021/08/23 04:00:48;;;;;;;6.60;4.75;;;25.30;98.80;;;;;;5093295;28;20109;-59
2021/08/23 04:03:16;;;;;;;8.88;4.88;;;25.30;98.80;;;;;;5074894;28;20127;-59
2021/08/23 04:05:44;;;;;;;12.05;5.47;;;25.30;98.80;;;;;;5092873;28;20067;-59
2021/08/23 04:08:12;;;;;;;6.55;4.93;;;25.30;98.80;;;;;;5074981;28;20079;-59
2021/08/23 04:10:39;;;;;;;8.13;5.00;;;25.30;99.00;;;;;;5075162;28;20044;-59
2021/08/23 04:13:07;;;;;;;9.68;5.15;;;25.30;99.00;;;;;;5058384;28;20050;-59
2021/08/23 04:15:34;;;;;;;8.35;5.13;;;25.30;99.00;;;;;;5075230;28;20048;-59
2021/08/23 04:18:02;;;;;;;7.90;5.03;;;25.30;99.00;;;;;;5075151;28;20394;-59
2021/08/23 04:20:30;;;;;;;7.78;4.68;;;25.30;98.80;;;;;;5074498;28;20040;-59
2021/08/23 04:22:57;;;;;;;8.80;4.78;;;25.30;98.60;;;;;;5074796;28;20048;-59
2021/08/23 04:25:25;;;;;;;6.65;4.70;;;25.30;98.40;;;;;;5074930;28;20055;-59
2021/08/23 04:27:53;;;;;;;7.13;4.72;;;25.30;98.00;;;;;;5075222;28;20036;-59
2021/08/23 04:30:20;;;;;;;7.18;4.78;;;25.30;97.50;;;;;;5075082;28;20142;-59
2021/08/23 04:32:49;;;;;;;9.52;3.95;;;25.30;97.30;;;;;;5075309;28;20056;-59
2021/08/23 04:35:16;;;;;;;5.80;4.38;;;25.40;97.60;;;;;;5074465;28;20059;-59
2021/08/23 04:37:44;;;;;;;7.93;5.18;;;25.40;97.90;;;;;;5074801;28;20101;-59
2021/08/23 04:40:12;;;;;;;8.75;5.38;;;25.40;98.00;;;;;;5074877;28;20494;-59
2021/08/23 04:42:40;;;;;;;12.27;5.85;;;25.40;98.20;;;;;;5058203;28;20097;-59
2021/08/23 04:45:09;;;;;;;7.78;5.28;;;25.40;98.30;;;;;;5058439;28;20052;-59
2021/08/23 04:47:37;;;;;;;11.25;5.72;;;25.50;98.30;;;;;;5058488;28;20097;-59
2021/08/23 04:50:05;;;;;;;8.30;5.82;;;25.60;98.30;;;;;;5092679;28;20139;-59
2021/08/23 04:52:39;;;;;;;10.73;6.60;;;25.60;98.10;;;;;;5074277;28;20093;-59
2021/08/23 04:55:07;;;;;;;14.32;6.55;;;25.70;98.10;;;;;;5074474;28;20406;-60
2021/08/23 04:57:35;;;;;;;14.45;7.00;;;25.90;98.10;;;;;;5074910;28;20046;-59
2021/08/23 05:00:06;;;;;;;12.90;7.18;;;25.90;98.00;;;;;;5058608;28;20051;-59
2021/08/23 05:02:34;;;;;;;9.52;5.50;;;26.00;98.00;;;;;;5058171;28;20048;-59
2021/08/23 05:05:02;;;;;;;11.50;4.78;;;26.10;97.90;;;;;;5074819;28;20128;-59
2021/08/23 05:07:30;;;;;;;6.95;4.60;;;26.20;97.80;;;;;;5060116;28;20060;-60
2021/08/23 05:09:57;;;;;;;9.27;4.60;;;26.40;97.70;;;;;;5095945;28;20040;-59
2021/08/23 05:12:25;;;;;;;8.30;5.68;;;26.50;97.50;;;;;;5096399;28;20058;-59
2021/08/23 05:14:52;;;;;;;6.93;4.28;;;26.70;97.20;;;;;;5078505;28;20036;-59
2021/08/23 05:17:20;;;;;;;6.97;3.85;;;26.80;96.80;;;;;;5078175;28;20044;-59
2021/08/23 05:19:48;;;;;;;6.32;4.13;;;26.90;96.40;;;;;;5078509;28;20505;-59
2021/08/23 05:22:17;;;;;;;6.63;4.68;;;27.10;95.90;;;;;;5095042;28;20047;-59
2021/08/23 05:24:46;;;;;;;7.63;4.10;;;27.20;95.00;;;;;;5077411;28;20050;-59
2021/08/23 05:27:13;;;;;;;8.50;4.40;;;27.40;94.40;;;;;;5077911;28;20047;-59
2021/08/23 05:29:43;;;;;;;6.65;4.68;;;27.50;93.80;;;;;;5077953;28;20097;-59
2021/08/23 05:32:16;;;;;;;10.10;4.40;;;27.60;93.20;;;;;;5078045;28;20105;-59
2021/08/23 05:34:46;;;;;;;6.30;4.13;;;27.80;92.70;;;;;;5061599;28;20047;-60
2021/08/23 05:37:13;;;;;;;19.27;4.55;;;27.90;92.10;;;;;;5043861;28;20040;-59
2021/08/23 05:39:41;;;;;;;5.95;4.22;;;28.10;91.70;;;;;;5077429;28;20052;-59
2021/08/23 05:42:10;;;;;;;9.45;4.45;;;28.20;91.20;;;;;;5077552;28;20048;-59
2021/08/23 05:44:38;;;;;;;6.00;4.18;;;28.40;90.70;;;;;;5077816;28;20074;-59
2021/08/23 05:47:06;;;;;;;6.50;3.88;;;28.50;90.10;;;;;;5077419;28;20032;-60
2021/08/23 05:49:34;;;;;;;6.10;4.85;;;28.70;89.20;;;;;;5044379;28;20075;-59
2021/08/23 05:52:02;;;;;;;6.10;4.05;;;28.80;88.20;;;;;;5077824;28;20562;-59
2021/08/23 05:54:30;;;;;;;8.98;5.00;;;28.90;86.10;;;;;;5076577;28;20044;-59
2021/08/23 05:56:58;;;;;;;8.45;4.65;;;29.00;84.80;;;;;;5060442;28;20414;-59
2021/08/23 05:59:26;;;;;;;6.20;4.85;;;29.20;83.70;;;;;;5077323;28;20098;-59
2021/08/23 06:01:54;;;;;;;8.57;5.25;;;29.30;83.00;;;;;;5077523;28;20379;-59
2021/08/23 06:04:22;;;;;;;8.05;5.07;;;29.50;82.40;;;;;;5077148;28;20036;-59
2021/08/23 06:06:51;;;;;;;11.50;5.45;;;29.60;82.20;;;;;;5077474;28;20516;-59
2021/08/23 06:09:19;;;;;;;8.18;4.88;;;29.70;82.10;;;;;;5059507;28;20040;-59
2021/08/23 06:11:50;;;;;;;8.57;5.25;;;29.90;82.50;;;;;;5077155;28;20035;-59
2021/08/23 06:14:18;;;;;;;9.48;5.45;;;30.00;81.70;;;;;;5077010;28;20047;-59
2021/08/23 06:16:46;;;;;;;7.85;5.25;;;30.20;80.10;;;;;;5076584;28;20043;-59
2021/08/23 06:19:13;;;;;;;7.45;5.32;;;30.30;78.60;;;;;;5076939;28;20055;-59
2021/08/23 06:21:41;;;;;;;13.73;5.97;;;30.50;76.40;;;;;;5076939;28;20048;-59
2021/08/23 06:24:08;;;;;;;9.27;6.25;;;30.60;73.70;;;;;;5094396;28;20055;-60
2021/08/23 06:26:36;;;;;;;8.35;6.10;;;30.70;72.30;;;;;;5059300;28;20054;-59
2021/08/23 06:29:06;;;;;;;10.38;6.78;;;30.90;70.80;;;;;;5059649;28;20044;-59
2021/08/23 06:31:33;;;;;;;8.57;6.13;;;31.00;68.80;;;;;;5076509;28;20044;-59
2021/08/23 06:34:01;;;;;;;11.07;6.80;;;31.10;68.20;;;;;;5076611;28;20048;-59
2021/08/23 06:36:32;;;;;;;10.63;6.47;;;31.20;66.80;;;;;;5076702;28;20044;-59
2021/08/23 06:39:00;;;;;;;9.27;6.60;;;31.20;66.10;;;;;;5059867;28;20446;-59
2021/08/23 06:41:28;;;;;;;13.55;7.10;;;31.30;65.10;;;;;;5075477;28;20502;-60
2021/08/23 06:43:56;;;;;;;10.38;7.97;;;31.50;64.70;;;;;;5076103;28;20046;-59
2021/08/23 06:46:24;;;;;;;12.52;8.35;;;31.60;63.80;;;;;;5076158;28;20118;-60
2021/08/23 06:48:51;;;;;;;12.43;8.70;;;31.60;63.70;;;;;;5076590;28;20398;-59
2021/08/23 06:51:20;;;;;;;11.80;8.52;;;31.80;63.50;;;;;;5076361;28;20512;-59
2021/08/23 06:53:49;;;;;;;9.98;8.05;;;31.90;63.40;;;;;;5076324;28;20047;-59
2021/08/23 06:56:18;;;;;;;13.18;8.55;;;31.90;63.50;;;;;;5058645;28;20051;-59
2021/08/23 06:58:45;;;;;;;8.20;6.43;;;32.00;63.20;;;;;;5075344;28;20048;-60
2021/08/23 07:01:15;;;;;;;11.10;6.95;;;32.10;64.60;;;;;;5059412;28;20114;-59
2021/08/23 07:03:43;;;;;;;9.90;7.00;;;32.20;65.30;;;;;;5059432;28;20051;-59
2021/08/23 07:06:10;;;;;;;11.88;7.25;;;32.30;63.90;;;;;;5076221;28;20608;-59
2021/08/23 07:08:44;;;;;;;12.98;7.93;;;32.40;62.80;;;;;;5094390;28;20040;-59
2021/08/23 07:11:11;;;;;;;11.65;8.70;;;32.40;62.90;;;;;;5075522;28;20044;-60
2021/08/23 07:13:40;;;;;;;13.23;8.52;;;32.50;62.50;;;;;;5075088;28;20062;-59
2021/08/23 07:16:08;;;;;;;9.25;6.35;;;32.60;62.30;;;;;;5042489;28;20052;-59
2021/08/23 07:18:37;;;;;;;11.13;8.52;;;32.70;62.50;;;;;;5059509;28;20577;-59
2021/08/23 07:21:05;;;;;;;7.07;6.25;;;32.80;62.50;;;;;;5075972;28;20528;-59
2021/08/23 07:23:32;;;;;;;9.65;7.28;;;32.90;62.30;;;;;;5075894;28;20517;-59
2021/08/23 07:26:00;;;;;;;10.65;6.88;;;32.90;61.50;;;;;;5075408;28;20048;-59
2021/08/23 07:28:28;;;;;;;13.80;8.38;;;32.90;61.80;;;;;;5073731;28;20139;-59
2021/08/23 07:30:58;;;;;;;9.02;6.30;;;33.00;61.70;;;;;;5055915;28;20105;-59
2021/08/23 07:33:26;;;;;;;13.88;8.00;;;33.10;61.60;;;;;;5052080;28;20491;-59
2021/08/23 07:35:54;;;;;;;8.95;6.70;;;33.20;61.50;;;;;;5052192;28;20041;-59
2021/08/23 07:38:21;;;;;;;10.00;7.38;;;33.20;61.10;;;;;;5051938;28;20118;-59
2021/08/23 07:40:49;;;;;;;10.48;7.05;;;33.40;60.60;;;;;;5053397;28;20087;-60
2021/08/23 07:43:17;;;;;;;10.55;6.63;;;33.50;60.00;;;;;;5051045;28;20053;-59
2021/08/23 07:45:45;;;;;;;9.25;6.75;;;33.50;59.50;;;;;;5034689;28;20045;-59
2021/08/23 07:48:12;;;;;;;7.80;6.45;;;33.60;59.30;;;;;;5051745;28;20498;-60
2021/08/23 07:50:40;;;;;;;10.05;6.68;;;33.50;59.40;;;;;;5053125;28;20045;-59
2021/08/23 07:53:09;;;;;;;14.13;6.95;;;33.60;60.00;;;;;;5052139;28;20041;-60
2021/08/23 07:55:38;;;;;;;8.68;6.75;;;33.70;59.70;;;;;;5053034;28;20045;-59
2021/08/23 07:58:05;;;;;;;10.88;7.80;;;33.80;60.00;;;;;;5051331;28;20041;-60
2021/08/23 08:00:33;;;;;;;9.50;7.07;;;33.90;60.60;;;;;;5050818;28;20399;-59
2021/08/23 08:03:01;;;;;;;9.10;6.55;;;33.90;59.80;;;;;;5052684;28;20049;-59
2021/08/23 08:05:28;;;;;;;10.75;7.28;;;34.00;59.50;;;;;;5051557;28;20052;-60
2021/08/23 08:07:56;;;;;;;7.45;5.93;;;34.10;59.80;;;;;;5051564;28;20041;-59
2021/08/23 08:10:24;;;;;;;7.22;5.80;;;34.00;60.30;;;;;;5035137;28;20387;-59
2021/08/23 08:12:52;;;;;;;8.05;6.07;;;34.00;61.60;;;;;;5051729;28;20570;-59
2021/08/23 08:15:19;;;;;;;8.30;5.88;;;34.20;61.70;;;;;;5050471;28;20045;-59
2021/08/23 08:17:47;;;;;;;7.10;5.78;;;34.30;61.10;;;;;;5051214;28;20049;-59
2021/08/23 08:20:15;;;;;;;9.65;6.35;;;34.30;61.70;;;;;;5050811;28;20037;-59
2021/08/23 08:22:44;;;;;;;8.27;6.05;;;34.30;61.60;;;;;;5051446;28;20041;-59
2021/08/23 08:25:12;;;;;;;10.60;6.00;;;34.40;61.60;;;;;;5051628;28;20045;-60
2021/08/23 08:27:40;;;;;;;10.50;5.80;;;34.50;62.10;;;;;;5035378;28;20072;-59
2021/08/23 08:30:10;;;;;;;8.82;6.28;;;34.50;62.00;;;;;;5033801;28;20056;-60
2021/08/23 08:32:38;;;;;;;7.47;5.28;;;34.40;62.40;;;;;;5052498;28;20060;-59
2021/08/23 08:35:08;;;;;;;7.95;6.20;;;34.40;62.70;;;;;;5034576;28;20056;-59
2021/08/23 08:37:36;;;;;;;9.68;6.20;;;34.40;61.90;;;;;;5051147;28;20589;-59
2021/08/23 08:40:05;;;;;;;7.18;6.47;;;34.10;62.30;;;;;;5052769;28;20052;-59
2021/08/23 08:42:33;;;;;;;7.32;6.45;;;34.20;62.60;;;;;;5055266;28;20071;-59
2021/08/23 08:45:00;;;;;;;8.48;5.78;;;34.10;62.40;;;;;;5054898;28;20051;-59
2021/08/23 08:47:30;;;;;;;10.45;5.97;;;34.00;62.60;;;;;;5053984;28;20052;-59
2021/08/23 08:50:02;;;;;;;8.63;6.45;;;34.10;62.90;;;;;;5038206;28;20134;-59
2021/08/23 08:52:31;;;;;;;7.65;5.85;;;34.20;61.50;;;;;;5056379;28;20068;-59
2021/08/23 08:54:58;;;;;;;8.02;5.60;;;34.20;61.00;;;;;;5055039;28;20049;-60
2021/08/23 08:57:26;;;;;;;8.77;6.50;;;34.30;60.90;;;;;;5056476;28;20095;-59
2021/08/23 08:59:54;;;;;;;7.60;5.95;;;34.40;61.00;;;;;;5055186;28;20041;-59
2021/08/23 09:02:22;;;;;;;7.53;6.05;;;34.60;61.40;;;;;;5055320;28;20483;-59
2021/08/23 09:04:50;;;;;;;8.82;6.15;;;34.70;61.70;;;;;;5055377;28;20036;-59
2021/08/23 09:07:18;;;;;;;9.65;6.10;;;34.50;60.40;;;;;;5055207;28;20051;-59
2021/08/23 09:09:46;;;;;;;10.00;5.85;;;34.30;62.60;;;;;;5055018;28;20377;-59
2021/08/23 09:12:15;;;;;;;7.63;6.47;;;34.00;62.90;;;;;;5038490;28;20045;-59
2021/08/23 09:14:55;;;;;;;7.15;5.28;;;33.80;63.50;;;;;;5056189;28;20446;-59
2021/08/23 09:17:25;;;;;;;8.13;5.97;;;33.90;63.90;;;;;;5056199;28;20422;-59
2021/08/23 09:20:08;;;;;;;11.88;6.70;;;33.80;63.50;;;;;;5054875;28;20045;-59
2021/08/23 09:22:35;;;;;;;7.10;5.82;;;33.70;62.10;;;;;;5056354;28;20378;-59
2021/08/23 09:25:11;;;;;;;8.95;6.97;;;33.90;61.70;;;;;;5055048;28;20052;-59
2021/08/23 09:27:39;;;;;;;6.78;4.90;;;34.00;61.70;;;;;;5054987;28;20063;-60
2021/08/23 09:30:11;;;;;;;9.02;5.10;;;34.30;62.30;;;;;;5072874;28;20078;-60
2021/08/23 09:32:51;;;;;;;7.18;6.07;;;34.50;62.00;;;;;;5096273;28;20044;-60
2021/08/23 09:35:31;;;;;;;8.32;6.15;;;34.70;62.20;;;;;;5096115;28;20052;-57
2021/08/23 09:37:59;;;;;;;7.15;5.60;;;34.50;61.10;;;;;;5044875;28;20138;-60
2021/08/23 09:40:31;;;;;;;8.73;5.88;;;34.40;60.00;;;;;;5061398;28;20117;-60
2021/08/23 09:43:11;;;;;;;8.57;5.13;;;34.40;59.70;;;;;;5061108;28;20150;-59
2021/08/23 09:45:44;;;;;;;7.15;5.50;;;34.50;59.10;;;;;;5078278;28;20051;-59
2021/08/23 09:48:12;;;;;;;11.95;5.80;;;34.40;59.00;;;;;;5077997;28;20147;-59
2021/08/23 09:50:44;;;;;;;8.10;5.82;;;34.40;58.90;;;;;;5077796;28;20048;-59
2021/08/23 09:53:15;;;;;;;6.82;5.25;;;34.40;58.70;;;;;;5077182;28;20044;-58
2021/08/23 09:55:45;;;;;;;7.97;6.15;;;34.60;58.80;;;;;;5060960;28;20484;-59
2021/08/23 09:58:13;;;;;;;7.82;4.85;;;34.70;57.90;;;;;;5095663;28;20402;-59
2021/08/23 10:00:42;;;;;;;18.38;8.07;;;34.90;59.00;;;;;;5061360;28;20045;-59
2021/08/23 10:03:15;;;;;;;8.27;5.50;;;34.90;61.00;;;;;;5060896;28;20047;-59
2021/08/23 10:05:47;;;;;;;9.10;6.22;;;34.70;61.50;;;;;;5060915;28;20044;-59
2021/08/23 10:08:19;;;;;;;7.47;5.45;;;34.70;61.20;;;;;;5095572;28;20085;-60
2021/08/23 10:10:48;;;;;;;9.00;5.85;;;34.70;61.20;;;;;;5095725;28;20543;-59
2021/08/23 10:13:16;;;;;;;8.73;6.65;;;34.90;61.00;;;;;;5060776;28;20067;-59
2021/08/23 10:15:44;;;;;;;10.60;6.20;;;34.90;61.50;;;;;;5077393;28;20046;-59
2021/08/23 10:18:12;;;;;;;7.72;6.18;;;34.90;61.60;;;;;;5077524;28;20054;-59
2021/08/23 10:20:39;;;;;;;7.65;5.85;;;34.80;61.20;;;;;;5095233;28;20125;-59
2021/08/23 10:23:09;;;;;;;10.02;7.07;;;34.90;61.50;;;;;;5095115;28;20051;-59
2021/08/23 10:25:37;;;;;;;7.68;5.30;;;34.90;61.40;;;;;;5060562;28;20051;-59
2021/08/23 10:28:12;;;;;;;22.98;5.43;;;34.90;61.60;;;;;;5077298;28;20494;-58
2021/08/23 10:30:40;;;;;;;7.05;5.30;;;34.70;61.80;;;;;;5077111;28;20055;-59
2021/08/23 10:33:15;;;;;;;7.90;5.68;;;34.70;61.70;;;;;;5077164;28;20406;-59
2021/08/23 10:35:57;;;;;;;6.70;5.10;;;34.70;61.40;;;;;;5094927;28;20054;-59
2021/08/23 10:38:26;;;;;;;8.65;7.13;;;34.80;60.90;;;;;;5095065;28;20051;-59
2021/08/23 10:41:16;;;;;;;7.43;5.97;;;34.70;61.20;;;;;;5076818;28;20048;-59
2021/08/23 10:43:51;;;;;;;8.10;5.75;;;34.70;62.40;;;;;;5061782;28;20040;-59
2021/08/23 10:46:25;;;;;;;;;;;34.50;62.50;;;;;;5043823;28;20134;-59
2021/08/23 10:48:55;;;;;;;7.50;6.20;;;34.50;62.50;;;;;;5076853;28;20369;-58
2021/08/23 10:51:56;;;;;;;7.63;5.97;;;34.40;62.60;;;;;;5076553;28;20059;-59
2021/08/23 10:54:27;;;;;;;7.30;6.10;;;34.50;62.30;;;;;;5046844;28;20082;-59
2021/08/23 10:56:59;;;;;;;8.57;5.50;;;34.50;63.20;;;;;;5094628;28;20616;-59
2021/08/23 10:59:46;;;;;;;7.45;5.63;;;34.30;64.10;;;;;;5076683;28;20402;-59
2021/08/23 11:02:29;;;;;;;7.90;5.93;;;34.10;64.70;;;;;;5076765;28;20036;-60
2021/08/23 11:05:06;;;;;;;9.88;6.03;;;34.10;64.80;;;;;;5076328;28;20067;-60
2021/08/23 11:07:37;;;;;;;8.45;6.43;;;34.20;64.50;;;;;;5094295;28;20084;-59
2021/08/23 11:10:17;;;;;;;7.40;6.70;;;34.20;63.60;;;;;;5076600;28;20040;-61
2021/08/23 11:13:09;;;;;;;7.93;6.40;;;34.20;63.40;;;;;;5059611;28;20039;-59
2021/08/23 11:15:37;;;;;;;9.20;6.78;;;34.20;63.70;;;;;;5076308;28;20119;-59
2021/08/23 11:18:11;;;;;;;12.02;6.15;;;34.00;64.50;;;;;;5094227;28;20035;-60
2021/08/23 11:20:48;;;;;;;6.80;5.90;;;33.80;65.00;;;;;;5076111;28;20054;-59
2021/08/23 11:23:25;;;;;;;9.90;5.43;;;33.70;64.90;;;;;;5094146;28;20127;-59
2021/08/23 11:25:55;;;;;;;9.55;6.30;;;33.60;64.80;;;;;;5076301;28;20070;-61
2021/08/23 11:28:28;;;;;;;12.25;7.85;;;33.50;65.10;;;;;;5075715;28;20083;-60
2021/08/23 11:31:05;;;;;;;7.75;6.32;;;33.40;65.10;;;;;;5094107;28;20052;-59
2021/08/23 11:33:36;;;;;;;8.85;6.15;;;33.30;64.90;;;;;;5094116;28;20061;-58
2021/08/23 11:36:09;;;;;;;8.50;5.93;;;33.30;65.30;;;;;;5059339;28;20075;-58
2021/08/23 11:38:38;;;;;;;8.13;6.10;;;33.30;64.80;;;;;;5075767;28;20048;-59
2021/08/23 11:41:06;;;;;;;7.28;6.30;;;33.40;64.50;;;;;;5076018;28;20055;-58
2021/08/23 11:43:35;;;;;;;10.93;5.75;;;33.40;64.00;;;;;;5076309;28;20075;-59
2021/08/23 11:46:04;;;;;;;8.63;6.70;;;33.40;63.80;;;;;;5075897;28;20101;-59
2021/08/23 11:48:32;;;;;;;10.57;6.13;;;33.40;64.20;;;;;;5093677;28;20052;-59
2021/08/23 11:51:00;;;;;;;7.75;6.43;;;33.40;63.30;;;;;;5042636;28;20044;-57
2021/08/23 11:53:31;;;;;;;8.60;5.88;;;33.30;63.10;;;;;;5075974;28;20052;-58
2021/08/23 11:56:07;;;;;;;8.02;7.00;;;33.40;63.10;;;;;;5059019;28;20044;-58
2021/08/23 11:58:40;;;;;;;10.13;7.15;;;33.40;62.70;;;;;;5075235;28;20044;-58
2021/08/23 12:01:11;;;;;;;9.63;6.22;;;33.50;62.40;;;;;;5059034;28;20040;-58
2021/08/23 12:03:40;;;;;;;10.77;6.80;;;33.50;61.90;;;;;;5075790;28;20048;-58
2021/08/23 12:06:10;;;;;;;7.68;6.65;;;33.30;61.90;;;;;;5058974;28;20036;-59
2021/08/23 12:08:40;;;;;;;9.20;5.90;;;33.30;61.90;;;;;;5059065;28;20101;-58
2021/08/23 12:11:19;;;;;;;18.30;7.70;;;33.30;60.90;;;;;;5059011;28;20040;-58
2021/08/23 12:13:49;;;;;;;7.53;6.72;;;33.20;60.30;;;;;;5093585;28;20501;-58
2021/08/23 12:16:17;;;;;;;11.02;6.53;;;33.30;60.40;;;;;;5078737;28;20033;-58
2021/08/23 12:18:50;;;;;;;7.55;6.07;;;33.30;59.70;;;;;;5097839;28;20040;-58
2021/08/23 12:21:28;;;;;;;9.25;6.45;;;33.20;59.90;;;;;;5062868;28;20044;-58
2021/08/23 12:24:13;;;;;;;7.68;6.43;;;33.30;59.90;;;;;;5079599;28;20048;-58
2021/08/23 12:26:43;;;;;;;10.43;6.30;;;33.20;60.20;;;;;;5079650;28;20058;-57
2021/08/23 12:29:11;;;;;;;7.75;5.68;;;33.30;60.20;;;;;;5079061;28;20048;-61
2021/08/23 12:31:46;;;;;;;6.82;5.57;;;33.30;60.40;;;;;;5063083;28;20134;-58
2021/08/23 12:34:15;;;;;;;6.95;5.82;;;33.20;60.40;;;;;;5062733;28;20048;-58
2021/08/23 12:36:44;;;;;;;10.20;5.82;;;33.30;60.60;;;;;;5097379;28;20055;-58
2021/08/23 12:39:12;;;;;;;9.60;6.28;;;33.20;60.50;;;;;;5079226;28;20114;-58
2021/08/23 12:41:45;;;;;;;7.30;6.32;;;33.20;60.40;;;;;;5079184;28;20503;-58
2021/08/23 12:44:14;;;;;;;8.38;5.95;;;33.30;60.70;;;;;;5062532;28;20083;-58
2021/08/23 12:46:42;;;;;;;8.13;5.38;;;33.40;60.70;;;;;;5062485;28;20524;-58
2021/08/23 12:49:11;;;;;;;10.25;6.65;;;33.30;59.70;;;;;;5062463;28;20044;-58
2021/08/23 12:51:41;;;;;;;8.13;6.13;;;33.30;60.20;;;;;;5062173;28;20036;-58
2021/08/23 12:54:10;;;;;;;7.70;5.78;;;33.30;60.60;;;;;;5078884;28;20052;-58
2021/08/23 12:56:39;;;;;;;10.88;6.22;;;33.40;60.50;;;;;;5078994;28;20165;-58
2021/08/23 12:59:07;;;;;;;9.85;6.53;;;33.40;62.50;;;;;;5096767;28;20044;-59